createdAt,value
2023-02-17T00:00:28.873Z,0.00
2023-02-17T00:01:28.848Z,0.00
2023-02-17T00:02:28.965Z,0.00
2023-02-17T00:03:28.871Z,0.00
2023-02-17T00:04:28.807Z,0.00
2023-02-17T00:05:28.809Z,0.00
2023-02-17T00:06:28.775Z,0.00
2023-02-17T00:07:28.744Z,0.00
2023-02-17T00:08:28.766Z,0.00
2023-02-17T00:09:28.710Z,0.00
2023-02-17T00:10:28.685Z,0.00
2023-02-17T00:11:28.670Z,0.00
2023-02-17T00:12:28.660Z,0.00
2023-02-17T00:13:28.628Z,0.00
2023-02-17T00:14:28.614Z,0.00
2023-02-17T00:15:28.593Z,0.00
2023-02-17T00:16:28.601Z,0.00
2023-02-17T00:17:28.581Z,0.00
2023-02-17T00:18:28.552Z,0.00
2023-02-17T00:19:28.550Z,0.00
2023-02-17T00:20:28.519Z,0.00
2023-02-17T00:21:28.495Z,0.00
2023-02-17T00:22:28.471Z,0.00
2023-02-17T00:23:28.489Z,0.00
2023-02-17T00:24:28.435Z,0.00
2023-02-17T00:25:28.413Z,0.00
2023-02-17T00:26:28.419Z,0.00
2023-02-17T00:27:28.376Z,0.00
2023-02-17T00:28:28.364Z,0.00
2023-02-17T00:29:28.346Z,0.00
2023-02-17T00:30:28.378Z,0.00
2023-02-17T00:31:28.472Z,0.00
2023-02-17T00:32:28.295Z,0.00
2023-02-17T00:33:28.273Z,0.00
2023-02-17T00:34:28.275Z,0.00
2023-02-17T00:35:28.285Z,0.00
2023-02-17T00:36:28.227Z,0.00
2023-02-17T00:37:28.202Z,0.00
2023-02-17T00:38:28.206Z,0.00
2023-02-17T00:39:28.171Z,0.00
2023-02-17T00:40:28.162Z,0.00
2023-02-17T00:41:28.184Z,0.00
2023-02-17T00:42:28.122Z,0.00
2023-02-17T00:43:28.103Z,0.00
2023-02-17T00:44:28.083Z,0.00
2023-02-17T00:45:28.065Z,0.00
2023-02-17T00:46:28.125Z,0.00
2023-02-17T00:47:28.058Z,0.00
2023-02-17T00:48:28.033Z,0.00
2023-02-17T00:49:28.009Z,0.00
2023-02-17T00:50:27.984Z,0.00
2023-02-17T00:51:27.968Z,0.00
2023-02-17T00:52:27.992Z,0.00
2023-02-17T00:53:27.930Z,0.00
2023-02-17T00:54:27.938Z,0.00
2023-02-17T00:55:27.884Z,0.00
2023-02-17T00:56:27.886Z,0.00
2023-02-17T00:57:27.852Z,0.00
2023-02-17T00:58:27.844Z,0.00
2023-02-17T00:59:27.854Z,0.00
2023-02-17T01:00:27.799Z,0.00
2023-02-17T01:01:27.786Z,0.00
2023-02-17T01:02:27.766Z,0.00
2023-02-17T01:03:27.745Z,0.00
2023-02-17T01:04:27.785Z,0.00
2023-02-17T01:05:27.714Z,0.00
2023-02-17T01:06:27.692Z,0.00
2023-02-17T01:07:27.689Z,0.00
2023-02-17T01:08:27.667Z,0.00
2023-02-17T01:09:27.666Z,0.00
2023-02-17T01:10:27.638Z,0.00
2023-02-17T01:11:27.675Z,0.00
2023-02-17T01:12:27.589Z,0.00
2023-02-17T01:13:27.589Z,0.00
2023-02-17T01:14:27.556Z,0.00
2023-02-17T01:15:27.536Z,0.00
2023-02-17T01:16:27.550Z,0.00
2023-02-17T01:17:27.562Z,0.00
2023-02-17T01:18:27.501Z,0.00
2023-02-17T01:19:27.475Z,0.00
2023-02-17T01:20:27.447Z,0.00
2023-02-17T01:21:27.432Z,0.00
2023-02-17T01:22:27.407Z,0.00
2023-02-17T01:23:27.404Z,0.00
2023-02-17T01:24:27.373Z,0.00
2023-02-17T01:25:27.359Z,0.00
2023-02-17T01:26:27.345Z,0.00
2023-02-17T01:27:27.349Z,0.00
2023-02-17T01:28:27.303Z,0.00
2023-02-17T01:29:27.295Z,0.00
2023-02-17T01:30:27.312Z,0.00
2023-02-17T01:31:27.417Z,0.00
2023-02-17T01:32:27.259Z,0.00
2023-02-17T01:33:27.243Z,0.00
2023-02-17T01:34:27.221Z,0.00
2023-02-17T01:35:27.182Z,0.00
2023-02-17T01:36:27.158Z,0.00
2023-02-17T01:37:27.145Z,0.00
2023-02-17T01:38:27.127Z,0.00
2023-02-17T01:39:27.122Z,0.00
2023-02-17T01:40:27.095Z,0.00
2023-02-17T01:41:27.108Z,0.00
2023-02-17T01:42:27.050Z,0.00
2023-02-17T01:43:27.048Z,0.00
2023-02-17T01:44:27.013Z,0.00
2023-02-17T01:45:26.997Z,0.00
2023-02-17T01:46:27.010Z,0.00
2023-02-17T01:47:26.961Z,0.00
2023-02-17T01:48:26.943Z,0.00
2023-02-17T01:49:26.992Z,0.00
2023-02-17T01:50:26.905Z,0.00
2023-02-17T01:51:26.904Z,0.00
2023-02-17T01:52:26.869Z,0.00
2023-02-17T01:53:26.854Z,0.00
2023-02-17T01:54:26.834Z,0.00
2023-02-17T01:55:26.849Z,0.00
2023-02-17T01:56:26.802Z,0.00
2023-02-17T01:57:26.792Z,0.00
2023-02-17T01:58:26.770Z,0.00
2023-02-17T01:59:26.750Z,0.00
2023-02-17T02:00:26.758Z,0.00
2023-02-17T02:01:26.715Z,0.00
2023-02-17T02:02:26.715Z,0.00
2023-02-17T02:03:26.676Z,0.00
2023-02-17T02:04:26.683Z,0.00
2023-02-17T02:05:26.675Z,0.00
2023-02-17T02:06:26.623Z,0.00
2023-02-17T02:07:26.610Z,0.00
2023-02-17T02:08:26.590Z,0.00
2023-02-17T02:09:26.565Z,0.00
2023-02-17T02:10:26.586Z,0.00
2023-02-17T02:11:26.543Z,0.00
2023-02-17T02:12:26.521Z,0.00
2023-02-17T02:13:26.500Z,0.00
2023-02-17T02:14:26.478Z,0.00
2023-02-17T02:15:26.476Z,0.00
2023-02-17T02:16:26.491Z,0.00
2023-02-17T02:17:26.461Z,0.00
2023-02-17T02:18:26.433Z,0.00
2023-02-17T02:19:26.405Z,0.00
2023-02-17T02:20:26.424Z,0.00
2023-02-17T02:21:26.366Z,0.00
2023-02-17T02:22:26.350Z,0.00
2023-02-17T02:23:26.374Z,0.00
2023-02-17T02:24:26.308Z,0.00
2023-02-17T02:25:26.294Z,0.00
2023-02-17T02:26:26.282Z,0.00
2023-02-17T02:27:26.252Z,0.00
2023-02-17T02:28:26.235Z,0.00
2023-02-17T02:29:26.258Z,0.00
2023-02-17T02:30:26.241Z,0.00
2023-02-17T02:31:26.277Z,0.00
2023-02-17T02:32:26.165Z,0.00
2023-02-17T02:33:26.151Z,0.00
2023-02-17T02:34:26.157Z,0.00
2023-02-17T02:35:26.116Z,0.00
2023-02-17T02:36:26.096Z,0.00
2023-02-17T02:37:26.075Z,0.00
2023-02-17T02:38:26.062Z,0.00
2023-02-17T02:39:26.045Z,0.00
2023-02-17T02:40:26.024Z,0.00
2023-02-17T02:41:26.029Z,0.00
2023-02-17T02:42:25.986Z,0.00
2023-02-17T02:43:25.970Z,0.00
2023-02-17T02:44:25.948Z,0.00
2023-02-17T02:45:26.027Z,0.00
2023-02-17T02:46:25.917Z,0.00
2023-02-17T02:47:25.925Z,0.00
2023-02-17T02:48:25.886Z,0.00
2023-02-17T02:49:25.866Z,0.00
2023-02-17T02:50:25.846Z,0.00
2023-02-17T02:51:25.836Z,0.00
2023-02-17T02:52:25.839Z,0.00
2023-02-17T02:53:25.795Z,0.00
2023-02-17T02:54:25.775Z,0.00
2023-02-17T02:55:25.754Z,0.00
2023-02-17T02:56:25.749Z,0.00
2023-02-17T02:57:25.734Z,0.00
2023-02-17T02:58:25.733Z,0.00
2023-02-17T02:59:25.684Z,0.00
2023-02-17T03:00:25.672Z,0.00
2023-02-17T03:01:25.766Z,0.00
2023-02-17T03:02:25.639Z,0.00
2023-02-17T03:03:25.617Z,0.00
2023-02-17T03:04:25.610Z,0.00
2023-02-17T03:05:25.586Z,0.00
2023-02-17T03:06:25.566Z,0.00
2023-02-17T03:07:25.558Z,0.00
2023-02-17T03:08:25.552Z,0.00
2023-02-17T03:09:25.514Z,0.00
2023-02-17T03:10:25.493Z,0.00
2023-02-17T03:11:25.479Z,0.00
2023-02-17T03:12:25.479Z,0.00
2023-02-17T03:13:25.474Z,0.00
2023-02-17T03:14:25.416Z,0.00
2023-02-17T03:15:25.416Z,0.00
2023-02-17T03:16:25.427Z,0.00
2023-02-17T03:17:25.383Z,0.00
2023-02-17T03:18:25.376Z,0.00
2023-02-17T03:19:25.350Z,0.00
2023-02-17T03:20:25.322Z,0.00
2023-02-17T03:21:25.325Z,0.00
2023-02-17T03:22:25.279Z,0.00
2023-02-17T03:23:25.282Z,0.00
2023-02-17T03:24:25.254Z,0.00
2023-02-17T03:25:25.225Z,0.00
2023-02-17T03:26:25.208Z,0.00
2023-02-17T03:27:25.189Z,0.00
2023-02-17T03:28:25.186Z,0.00
2023-02-17T03:29:25.169Z,0.00
2023-02-17T03:30:25.176Z,0.00
2023-02-17T03:31:25.192Z,0.00
2023-02-17T03:32:25.214Z,0.00
2023-02-17T03:33:25.112Z,0.00
2023-02-17T03:34:25.066Z,0.00
2023-02-17T03:35:25.048Z,0.00
2023-02-17T03:36:25.036Z,0.00
2023-02-17T03:37:25.020Z,0.00
2023-02-17T03:38:24.996Z,0.00
2023-02-17T03:39:24.978Z,0.00
2023-02-17T03:40:24.962Z,0.00
2023-02-17T03:41:24.946Z,0.00
2023-02-17T03:42:24.937Z,0.00
2023-02-17T03:43:24.917Z,0.00
2023-02-17T03:44:24.888Z,0.00
2023-02-17T03:45:24.874Z,0.00
2023-02-17T03:46:24.856Z,0.00
2023-02-17T03:47:24.839Z,0.00
2023-02-17T03:48:24.862Z,0.00
2023-02-17T03:49:24.805Z,0.00
2023-02-17T03:50:24.784Z,0.00
2023-02-17T03:51:24.770Z,0.00
2023-02-17T03:52:24.760Z,0.00
2023-02-17T03:53:24.739Z,0.00
2023-02-17T03:54:24.740Z,0.00
2023-02-17T03:55:24.707Z,0.00
2023-02-17T03:56:24.672Z,0.00
2023-02-17T03:57:24.677Z,0.00
2023-02-17T03:58:24.641Z,0.00
2023-02-17T03:59:24.646Z,0.00
2023-02-17T04:00:24.605Z,0.00
2023-02-17T04:01:24.654Z,0.00
2023-02-17T04:02:24.593Z,0.00
2023-02-17T04:03:24.571Z,0.00
2023-02-17T04:04:24.586Z,0.00
2023-02-17T04:05:24.516Z,0.00
2023-02-17T04:06:24.536Z,0.00
2023-02-17T04:07:24.478Z,0.00
2023-02-17T04:08:24.466Z,0.00
2023-02-17T04:09:24.450Z,0.00
2023-02-17T04:10:24.422Z,0.00
2023-02-17T04:11:24.410Z,0.00
2023-02-17T04:12:24.403Z,0.00
2023-02-17T04:13:24.708Z,0.00
2023-02-17T04:14:24.356Z,0.00
2023-02-17T04:15:24.410Z,0.00
2023-02-17T04:16:24.323Z,0.00
2023-02-17T04:17:24.328Z,0.00
2023-02-17T04:18:24.321Z,0.00
2023-02-17T04:19:24.268Z,0.00
2023-02-17T04:20:24.269Z,0.00
2023-02-17T04:21:24.235Z,0.00
2023-02-17T04:22:24.212Z,0.00
2023-02-17T04:23:24.195Z,0.00
2023-02-17T04:24:24.241Z,0.00
2023-02-17T04:25:24.169Z,0.00
2023-02-17T04:26:24.147Z,0.00
2023-02-17T04:27:24.135Z,0.00
2023-02-17T04:28:24.134Z,0.00
2023-02-17T04:29:24.131Z,0.00
2023-02-17T04:30:24.126Z,0.00
2023-02-17T04:31:24.139Z,0.00
2023-02-17T04:32:24.056Z,0.00
2023-02-17T04:33:24.045Z,0.00
2023-02-17T04:34:24.026Z,0.00
2023-02-17T04:35:23.984Z,0.00
2023-02-17T04:36:24.002Z,0.00
2023-02-17T04:37:23.948Z,0.00
2023-02-17T04:38:23.944Z,0.00
2023-02-17T04:39:23.957Z,0.00
2023-02-17T04:40:23.921Z,0.00
2023-02-17T04:41:23.883Z,0.00
2023-02-17T04:42:23.860Z,0.00
2023-02-17T04:43:23.855Z,0.00
2023-02-17T04:44:23.824Z,0.00
2023-02-17T04:45:23.834Z,0.00
2023-02-17T04:46:23.822Z,0.00
2023-02-17T04:47:23.773Z,0.00
2023-02-17T04:48:23.774Z,0.00
2023-02-17T04:49:23.785Z,0.00
2023-02-17T04:50:23.729Z,0.00
2023-02-17T04:51:23.731Z,0.00
2023-02-17T04:52:23.693Z,0.00
2023-02-17T04:53:23.668Z,0.00
2023-02-17T04:54:23.681Z,0.00
2023-02-17T04:55:23.632Z,0.00
2023-02-17T04:56:23.641Z,0.00
2023-02-17T04:57:23.620Z,0.00
2023-02-17T04:58:23.576Z,0.00
2023-02-17T04:59:25.543Z,0.00
2023-02-17T05:00:23.540Z,0.00
2023-02-17T05:01:23.561Z,0.00
2023-02-17T05:02:23.529Z,0.00
2023-02-17T05:03:23.491Z,0.00
2023-02-17T05:04:23.497Z,0.00
2023-02-17T05:05:23.479Z,0.00
2023-02-17T05:06:23.468Z,0.00
2023-02-17T05:07:23.428Z,0.00
2023-02-17T05:08:23.403Z,0.00
2023-02-17T05:09:23.415Z,0.00
2023-02-17T05:10:24.174Z,0.00
2023-02-17T05:11:23.350Z,0.00
2023-02-17T05:12:23.333Z,0.00
2023-02-17T05:13:23.343Z,0.00
2023-02-17T05:14:23.322Z,0.00
2023-02-17T05:15:23.295Z,0.00
2023-02-17T05:16:23.337Z,0.00
2023-02-17T05:17:23.254Z,0.00
2023-02-17T05:18:23.223Z,0.00
2023-02-17T05:19:23.214Z,0.00
2023-02-17T05:20:23.191Z,0.00
2023-02-17T05:21:23.193Z,0.00
2023-02-17T05:22:23.163Z,0.00
2023-02-17T05:23:23.202Z,0.00
2023-02-17T05:24:23.166Z,0.00
2023-02-17T05:25:23.149Z,0.00
2023-02-17T05:26:23.085Z,0.00
2023-02-17T05:27:23.070Z,0.00
2023-02-17T05:28:23.071Z,0.00
2023-02-17T05:29:23.052Z,0.00
2023-02-17T05:30:23.052Z,0.00
2023-02-17T05:31:23.101Z,0.00
2023-02-17T05:32:22.981Z,0.00
2023-02-17T05:33:22.979Z,0.00
2023-02-17T05:34:22.950Z,0.00
2023-02-17T05:35:22.929Z,0.00
2023-02-17T05:36:22.939Z,0.00
2023-02-17T05:37:22.925Z,0.00
2023-02-17T05:38:22.900Z,0.00
2023-02-17T05:39:22.860Z,0.00
2023-02-17T05:40:22.886Z,0.00
2023-02-17T05:41:22.829Z,0.00
2023-02-17T05:42:22.810Z,0.00
2023-02-17T05:43:22.788Z,0.00
2023-02-17T05:44:22.770Z,0.00
2023-02-17T05:45:22.752Z,0.00
2023-02-17T05:46:22.800Z,0.00
2023-02-17T05:47:22.748Z,0.00
2023-02-17T05:48:22.731Z,0.00
2023-02-17T05:49:22.709Z,0.00
2023-02-17T05:50:22.670Z,0.00
2023-02-17T05:51:22.653Z,0.00
2023-02-17T05:52:22.632Z,0.00
2023-02-17T05:53:22.610Z,0.00
2023-02-17T05:54:22.625Z,0.00
2023-02-17T05:55:22.595Z,0.00
2023-02-17T05:56:22.571Z,0.00
2023-02-17T05:57:22.543Z,0.00
2023-02-17T05:58:22.531Z,0.00
2023-02-17T05:59:22.564Z,0.00
2023-02-17T06:00:22.516Z,0.00
2023-02-17T06:01:22.475Z,0.00
2023-02-17T06:02:22.463Z,0.00
2023-02-17T06:03:22.475Z,0.00
2023-02-17T06:04:22.496Z,0.00
2023-02-17T06:05:22.414Z,0.00
2023-02-17T06:06:22.401Z,0.00
2023-02-17T06:07:22.368Z,0.00
2023-02-17T06:08:22.365Z,0.00
2023-02-17T06:09:22.372Z,0.00
2023-02-17T06:10:22.315Z,0.00
2023-02-17T06:11:22.311Z,0.00
2023-02-17T06:12:22.306Z,0.00
2023-02-17T06:13:22.275Z,0.00
2023-02-17T06:14:22.262Z,0.00
2023-02-17T06:15:22.227Z,0.00
2023-02-17T06:16:22.229Z,0.00
2023-02-17T06:17:22.197Z,0.00
2023-02-17T06:18:22.228Z,0.00
2023-02-17T06:19:22.176Z,4.00
2023-02-17T06:20:22.311Z,4.00
2023-02-17T06:21:22.132Z,4.00
2023-02-17T06:22:22.103Z,4.00
2023-02-17T06:23:22.100Z,4.00
2023-02-17T06:24:22.110Z,8.00
2023-02-17T06:25:22.061Z,4.00
2023-02-17T06:26:22.044Z,8.00
2023-02-17T06:27:22.025Z,8.00
2023-02-17T06:28:22.049Z,8.00
2023-02-17T06:29:21.984Z,12.00
2023-02-17T06:30:22.049Z,12.00
2023-02-17T06:31:22.086Z,12.00
2023-02-17T06:32:21.930Z,12.00
2023-02-17T06:33:21.913Z,16.00
2023-02-17T06:34:21.901Z,12.00
2023-02-17T06:35:21.905Z,12.00
2023-02-17T06:36:21.881Z,16.00
2023-02-17T06:37:21.843Z,16.00
2023-02-17T06:38:21.909Z,20.00
2023-02-17T06:39:21.797Z,20.00
2023-02-17T06:40:21.805Z,16.00
2023-02-17T06:41:21.770Z,20.00
2023-02-17T06:42:21.748Z,24.00
2023-02-17T06:43:21.760Z,24.00
2023-02-17T06:44:21.716Z,28.00
2023-02-17T06:45:21.741Z,32.00
2023-02-17T06:46:21.677Z,32.00
2023-02-17T06:47:21.690Z,32.00
2023-02-17T06:48:21.640Z,40.00
2023-02-17T06:49:21.670Z,48.00
2023-02-17T06:50:21.609Z,52.00
2023-02-17T06:51:21.599Z,52.00
2023-02-17T06:52:21.582Z,60.00
2023-02-17T06:53:21.553Z,56.00
2023-02-17T06:54:21.549Z,56.00
2023-02-17T06:55:21.513Z,60.00
2023-02-17T06:56:21.507Z,56.00
2023-02-17T06:57:21.481Z,68.00
2023-02-17T06:58:21.470Z,80.00
2023-02-17T06:59:21.513Z,88.00
2023-02-17T07:00:21.445Z,92.00
2023-02-17T07:01:21.414Z,100.00
2023-02-17T07:02:21.523Z,92.00
2023-02-17T07:03:21.378Z,96.00
2023-02-17T07:04:21.363Z,112.00
2023-02-17T07:05:21.370Z,124.00
2023-02-17T07:06:21.327Z,140.00
2023-02-17T07:07:21.311Z,136.00
2023-02-17T07:08:21.314Z,140.00
2023-02-17T07:09:21.276Z,128.00
2023-02-17T07:10:21.265Z,136.00
2023-02-17T07:11:21.242Z,148.00
2023-02-17T07:12:21.221Z,144.00
2023-02-17T07:13:21.208Z,156.00
2023-02-17T07:14:22.505Z,192.00
2023-02-17T07:15:21.189Z,176.00
2023-02-17T07:16:21.190Z,168.00
2023-02-17T07:17:21.135Z,184.00
2023-02-17T07:18:21.135Z,204.00
2023-02-17T07:19:21.102Z,236.00
2023-02-17T07:20:21.114Z,232.00
2023-02-17T07:21:21.065Z,248.00
2023-02-17T07:22:21.054Z,296.00
2023-02-17T07:23:21.031Z,312.00
2023-02-17T07:24:21.055Z,276.00
2023-02-17T07:25:20.998Z,320.00
2023-02-17T07:26:21.039Z,336.00
2023-02-17T07:27:20.960Z,296.00
2023-02-17T07:28:20.981Z,308.00
2023-02-17T07:29:20.931Z,312.00
2023-02-17T07:30:20.962Z,332.00
2023-02-17T07:31:21.072Z,348.00
2023-02-17T07:32:20.909Z,372.00
2023-02-17T07:33:20.873Z,380.00
2023-02-17T07:34:20.848Z,372.00
2023-02-17T07:35:20.823Z,396.00
2023-02-17T07:36:20.804Z,404.00
2023-02-17T07:37:20.784Z,344.00
2023-02-17T07:38:20.769Z,384.00
2023-02-17T07:39:20.747Z,340.00
2023-02-17T07:40:20.770Z,360.00
2023-02-17T07:41:20.714Z,364.00
2023-02-17T07:42:20.697Z,348.00
2023-02-17T07:43:20.708Z,340.00
2023-02-17T07:44:20.663Z,324.00
2023-02-17T07:45:20.643Z,312.00
2023-02-17T07:46:20.661Z,384.00
2023-02-17T07:47:20.635Z,304.00
2023-02-17T07:48:20.589Z,424.00
2023-02-17T07:49:20.582Z,392.00
2023-02-17T07:50:20.905Z,408.00
2023-02-17T07:51:20.623Z,392.00
2023-02-17T07:52:20.595Z,372.00
2023-02-17T07:53:20.516Z,340.00
2023-02-17T07:54:20.484Z,344.00
2023-02-17T07:55:20.481Z,424.00
2023-02-17T07:56:20.454Z,420.00
2023-02-17T07:57:20.467Z,380.00
2023-02-17T07:58:20.417Z,352.00
2023-02-17T07:59:20.395Z,328.00
2023-02-17T08:00:20.390Z,352.00
2023-02-17T08:01:20.365Z,372.00
2023-02-17T08:02:20.438Z,392.00
2023-02-17T08:03:20.368Z,460.00
2023-02-17T08:04:20.337Z,456.00
2023-02-17T08:05:20.291Z,400.00
2023-02-17T08:06:20.272Z,452.00
2023-02-17T08:07:20.256Z,412.00
2023-02-17T08:08:20.268Z,460.00
2023-02-17T08:09:20.221Z,480.00
2023-02-17T08:10:20.221Z,532.00
2023-02-17T08:11:20.186Z,468.00
2023-02-17T08:12:20.180Z,476.00
2023-02-17T08:13:20.172Z,460.00
2023-02-17T08:14:20.139Z,436.00
2023-02-17T08:15:20.157Z,496.00
2023-02-17T08:16:20.169Z,508.00
2023-02-17T08:17:20.080Z,516.00
2023-02-17T08:18:20.093Z,476.00
2023-02-17T08:19:20.124Z,524.00
2023-02-17T08:20:20.110Z,532.00
2023-02-17T08:21:20.012Z,528.00
2023-02-17T08:22:20.005Z,492.00
2023-02-17T08:23:19.988Z,568.00
2023-02-17T08:24:19.991Z,576.00
2023-02-17T08:25:20.002Z,560.00
2023-02-17T08:26:19.926Z,560.00
2023-02-17T08:27:19.909Z,564.00
2023-02-17T08:28:19.890Z,668.00
2023-02-17T08:29:19.895Z,620.00
2023-02-17T08:30:19.929Z,556.00
2023-02-17T08:31:20.023Z,544.00
2023-02-17T08:32:19.858Z,612.00
2023-02-17T08:33:19.811Z,628.00
2023-02-17T08:34:19.785Z,648.00
2023-02-17T08:35:19.844Z,692.00
2023-02-17T08:36:19.766Z,724.00
2023-02-17T08:37:19.760Z,676.00
2023-02-17T08:38:19.717Z,716.00
2023-02-17T08:39:19.706Z,780.00
2023-02-17T08:40:19.685Z,688.00
2023-02-17T08:41:19.667Z,664.00
2023-02-17T08:42:19.741Z,752.00
2023-02-17T08:43:19.626Z,908.00
2023-02-17T08:44:19.645Z,776.00
2023-02-17T08:45:19.592Z,808.00
2023-02-17T08:46:19.715Z,796.00
2023-02-17T08:47:19.559Z,792.00
2023-02-17T08:48:19.582Z,764.00
2023-02-17T08:49:19.524Z,808.00
2023-02-17T08:50:19.509Z,792.00
2023-02-17T08:51:19.534Z,772.00
2023-02-17T08:52:19.480Z,832.00
2023-02-17T08:53:19.478Z,856.00
2023-02-17T08:54:19.494Z,856.00
2023-02-17T08:55:19.415Z,824.00
2023-02-17T08:56:19.427Z,960.00
2023-02-17T08:57:19.461Z,852.00
2023-02-17T08:58:19.477Z,880.00
2023-02-17T08:59:19.346Z,764.00
2023-02-17T09:00:19.381Z,864.00
2023-02-17T09:01:19.372Z,884.00
2023-02-17T09:02:19.344Z,932.00
2023-02-17T09:03:19.333Z,1000.00
2023-02-17T09:04:19.302Z,952.00
2023-02-17T09:05:19.260Z,964.00
2023-02-17T09:06:19.262Z,912.00
2023-02-17T09:07:19.214Z,856.00
2023-02-17T09:08:19.241Z,848.00
2023-02-17T09:09:19.238Z,928.00
2023-02-17T09:10:19.160Z,976.00
2023-02-17T09:11:19.135Z,864.00
2023-02-17T09:12:19.140Z,792.00
2023-02-17T09:13:19.172Z,784.00
2023-02-17T09:14:19.130Z,972.00
2023-02-17T09:15:19.100Z,804.00
2023-02-17T09:16:19.158Z,856.00
2023-02-17T09:17:19.051Z,880.00
2023-02-17T09:18:19.019Z,804.00
2023-02-17T09:19:19.015Z,956.00
2023-02-17T09:20:24.728Z,856.00
2023-02-17T09:21:19.051Z,912.00
2023-02-17T09:22:31.208Z,984.00
2023-02-17T09:23:18.992Z,884.00
2023-02-17T09:24:18.961Z,864.00
2023-02-17T09:25:18.943Z,880.00
2023-02-17T09:26:18.995Z,872.00
2023-02-17T09:27:18.863Z,804.00
2023-02-17T09:28:18.879Z,840.00
2023-02-17T09:29:18.883Z,988.00
2023-02-17T09:30:18.937Z,820.00
2023-02-17T09:31:18.912Z,896.00
2023-02-17T09:32:18.956Z,776.00
2023-02-17T09:33:18.771Z,876.00
2023-02-17T09:34:18.741Z,872.00
2023-02-17T09:35:18.827Z,900.00
2023-02-17T09:36:19.437Z,924.00
2023-02-17T09:37:18.698Z,920.00
2023-02-17T09:38:18.678Z,1000.00
2023-02-17T09:39:18.731Z,1004.00
2023-02-17T09:40:18.707Z,960.00
2023-02-17T09:41:18.620Z,924.00
2023-02-17T09:42:18.725Z,960.00
2023-02-17T09:43:18.585Z,1076.00
2023-02-17T09:44:18.569Z,1056.00
2023-02-17T09:45:18.593Z,988.00
2023-02-17T09:46:18.596Z,1000.00
2023-02-17T09:47:18.591Z,1068.00
2023-02-17T09:48:18.526Z,1084.00
2023-02-17T09:49:18.482Z,1276.00
2023-02-17T09:50:18.473Z,1128.00
2023-02-17T09:51:18.443Z,1124.00
2023-02-17T09:52:18.834Z,1256.00
2023-02-17T09:53:18.438Z,1128.00
2023-02-17T09:54:18.408Z,1460.00
2023-02-17T09:55:18.377Z,1200.00
2023-02-17T09:56:19.700Z,1336.00
2023-02-17T09:57:18.424Z,1284.00
2023-02-17T09:58:18.375Z,1420.00
2023-02-17T09:59:18.381Z,1264.00
2023-02-17T10:00:18.287Z,1188.00
2023-02-17T10:01:18.283Z,1316.00
2023-02-17T10:02:18.287Z,1468.00
2023-02-17T10:03:18.689Z,1672.00
2023-02-17T10:04:18.410Z,1884.00
2023-02-17T10:05:18.297Z,1840.00
2023-02-17T10:06:18.192Z,1572.00
2023-02-17T10:07:18.197Z,1544.00
2023-02-17T10:08:18.149Z,1700.00
2023-02-17T10:09:18.166Z,2368.00
2023-02-17T10:10:18.166Z,1948.00
2023-02-17T10:11:18.157Z,1648.00
2023-02-17T10:12:18.131Z,1372.00
2023-02-17T10:13:18.062Z,1352.00
2023-02-17T10:14:18.073Z,1532.00
2023-02-17T10:15:18.554Z,1464.00
2023-02-17T10:16:18.164Z,1464.00
2023-02-17T10:17:18.108Z,1632.00
2023-02-17T10:18:18.029Z,1820.00
2023-02-17T10:19:17.958Z,1920.00
2023-02-17T10:20:17.986Z,1972.00
2023-02-17T10:21:17.925Z,1796.00
2023-02-17T10:22:17.939Z,1580.00
2023-02-17T10:23:17.889Z,1564.00
2023-02-17T10:24:17.869Z,1496.00
2023-02-17T10:25:17.911Z,1540.00
2023-02-17T10:26:17.867Z,1452.00
2023-02-17T10:27:17.880Z,1196.00
2023-02-17T10:28:17.855Z,1656.00
2023-02-17T10:29:17.799Z,1516.00
2023-02-17T10:30:17.817Z,1616.00
2023-02-17T10:31:17.817Z,1560.00
2023-02-17T10:32:20.053Z,1772.00
2023-02-17T10:33:17.716Z,1792.00
2023-02-17T10:34:17.728Z,1748.00
2023-02-17T10:35:17.764Z,2052.00
2023-02-17T10:36:17.702Z,2996.00
2023-02-17T10:37:17.661Z,3592.00
2023-02-17T10:38:17.642Z,3832.00
2023-02-17T10:39:17.632Z,4064.00
2023-02-17T10:40:17.603Z,4428.00
2023-02-17T10:41:17.585Z,3800.00
2023-02-17T10:42:17.558Z,3640.00
2023-02-17T10:43:17.547Z,4080.00
2023-02-17T10:44:17.539Z,4972.00
2023-02-17T10:45:17.527Z,5292.00
2023-02-17T10:46:17.542Z,4744.00
2023-02-17T10:47:17.475Z,5144.00
2023-02-17T10:48:17.463Z,4832.00
2023-02-17T10:49:17.525Z,3844.00
2023-02-17T10:50:17.474Z,5188.00
2023-02-17T10:51:17.412Z,5164.00
2023-02-17T10:52:17.424Z,4524.00
2023-02-17T10:53:17.407Z,4564.00
2023-02-17T10:54:17.361Z,4068.00
2023-02-17T10:55:23.198Z,3852.00
2023-02-17T10:56:17.328Z,3944.00
2023-02-17T10:57:17.373Z,2952.00
2023-02-17T10:58:17.305Z,3460.00
2023-02-17T10:59:17.280Z,3824.00
2023-02-17T11:00:17.282Z,4244.00
2023-02-17T11:01:17.317Z,4332.00
2023-02-17T11:02:17.256Z,4320.00
2023-02-17T11:03:17.226Z,3524.00
2023-02-17T11:04:17.199Z,3536.00
2023-02-17T11:05:17.485Z,3596.00
2023-02-17T11:06:17.158Z,3848.00
2023-02-17T11:07:17.150Z,3836.00
2023-02-17T11:08:17.163Z,4480.00
2023-02-17T11:09:17.121Z,4992.00
2023-02-17T11:10:17.145Z,4100.00
2023-02-17T11:11:17.108Z,3564.00
2023-02-17T11:12:17.077Z,4248.00
2023-02-17T11:13:17.065Z,4688.00
2023-02-17T11:14:17.044Z,3568.00
2023-02-17T11:15:17.091Z,4140.00
2023-02-17T11:16:17.029Z,3688.00
2023-02-17T11:17:17.041Z,4060.00
2023-02-17T11:18:16.973Z,3740.00
2023-02-17T11:19:17.024Z,3556.00
2023-02-17T11:20:17.124Z,3412.00
2023-02-17T11:21:16.962Z,2912.00
2023-02-17T11:22:16.902Z,3632.00
2023-02-17T11:23:16.888Z,3392.00
2023-02-17T11:24:16.869Z,3376.00
2023-02-17T11:25:18.822Z,3808.00
2023-02-17T11:26:16.850Z,3368.00
2023-02-17T11:27:16.840Z,3204.00
2023-02-17T11:28:16.809Z,3324.00
2023-02-17T11:29:16.791Z,3360.00
2023-02-17T11:30:16.865Z,3568.00
2023-02-17T11:31:16.808Z,3452.00
2023-02-17T11:32:16.827Z,3304.00
2023-02-17T11:33:16.725Z,3744.00
2023-02-17T11:34:16.706Z,3680.00
2023-02-17T11:35:16.726Z,4404.00
2023-02-17T11:36:16.705Z,3608.00
2023-02-17T11:37:16.662Z,3312.00
2023-02-17T11:38:16.649Z,3716.00
2023-02-17T11:39:16.626Z,3944.00
2023-02-17T11:40:17.009Z,3780.00
2023-02-17T11:41:16.596Z,4148.00
2023-02-17T11:42:16.585Z,3456.00
2023-02-17T11:43:16.566Z,3728.00
2023-02-17T11:44:16.575Z,3528.00
2023-02-17T11:45:16.534Z,3840.00
2023-02-17T11:46:16.578Z,3504.00
2023-02-17T11:47:16.545Z,4532.00
2023-02-17T11:48:16.484Z,3348.00
2023-02-17T11:49:16.468Z,3344.00
2023-02-17T11:50:16.453Z,3576.00
2023-02-17T11:51:16.433Z,2728.00
2023-02-17T11:52:16.416Z,2580.00
2023-02-17T11:53:16.426Z,2388.00
2023-02-17T11:54:16.380Z,2692.00
2023-02-17T11:55:16.393Z,2248.00
2023-02-17T11:56:16.387Z,2044.00
2023-02-17T11:57:16.341Z,2088.00
2023-02-17T11:58:16.312Z,2348.00
2023-02-17T11:59:16.300Z,2040.00
2023-02-17T12:00:16.279Z,1996.00
2023-02-17T12:01:16.264Z,1736.00
2023-02-17T12:02:16.292Z,1928.00
2023-02-17T12:03:16.255Z,2000.00
2023-02-17T12:04:16.220Z,2072.00
2023-02-17T12:05:16.319Z,2468.00
2023-02-17T12:06:16.184Z,2220.00
2023-02-17T12:07:16.166Z,2636.00
2023-02-17T12:08:16.156Z,2312.00
2023-02-17T12:09:16.130Z,2540.00
2023-02-17T12:10:16.142Z,2696.00
2023-02-17T12:11:16.098Z,2916.00
2023-02-17T12:12:16.079Z,3176.00
2023-02-17T12:13:16.136Z,2948.00
2023-02-17T12:14:16.048Z,2984.00
2023-02-17T12:15:16.042Z,2764.00
2023-02-17T12:16:16.055Z,2844.00
2023-02-17T12:17:16.007Z,2124.00
2023-02-17T12:18:15.982Z,1960.00
2023-02-17T12:19:15.974Z,1876.00
2023-02-17T12:20:15.948Z,2228.00
2023-02-17T12:21:15.941Z,1976.00
2023-02-17T12:22:15.916Z,1916.00
2023-02-17T12:23:15.914Z,2004.00
2023-02-17T12:24:15.888Z,1868.00
2023-02-17T12:25:15.865Z,1964.00
2023-02-17T12:26:15.848Z,1628.00
2023-02-17T12:27:15.846Z,1612.00
2023-02-17T12:28:15.825Z,1560.00
2023-02-17T12:29:15.833Z,1480.00
2023-02-17T12:30:15.881Z,1376.00
2023-02-17T12:31:15.965Z,1452.00
2023-02-17T12:32:15.767Z,1160.00
2023-02-17T12:33:15.740Z,1292.00
2023-02-17T12:34:15.744Z,1268.00
2023-02-17T12:35:15.909Z,1332.00
2023-02-17T12:36:15.703Z,1560.00
2023-02-17T12:37:15.673Z,1996.00
2023-02-17T12:38:15.661Z,2144.00
2023-02-17T12:39:15.639Z,2068.00
2023-02-17T12:40:15.732Z,1596.00
2023-02-17T12:41:15.654Z,1588.00
2023-02-17T12:42:15.588Z,1628.00
2023-02-17T12:43:15.599Z,1428.00
2023-02-17T12:44:15.557Z,1484.00
2023-02-17T12:45:15.550Z,1588.00
2023-02-17T12:46:15.630Z,1448.00
2023-02-17T12:47:15.519Z,1336.00
2023-02-17T12:48:15.490Z,1396.00